Terminal Aerodrome Forecast
Issued by NWS Albany, NY

Home | Current Version | Previous Version | Text Only | Print | Product List | Glossary On
Versions: 1 2 3 4 5 6 7 8 9 10 11 12 13 14 15 16 17 18
000
FTUS41 KALY 250522
TAFALB
TAF
KALB 250522Z 2506/2606 16005KT P6SM BKN090
     FM251200 13006KT P6SM VCSH OVC070
     FM251500 11010G18KT 6SM -RA OVC045 WS020/14035KT
     FM252200 08007KT P6SM VCSH OVC020 PROB30 2522/2604 4SM -RA
      OVC007
     FM260500 04005KT 6SM -RA OVC020=

USA.gov is the U.S. government's official web portal to all federal, state and local government web resources and services.